createdAt,value
2018-11-22T12:18:21.961Z,75.31
2018-11-22T12:23:25.226Z,76.76
2018-11-22T12:28:28.855Z,76.55
2018-11-22T12:33:32.130Z,76.15
2018-11-22T12:38:36.289Z,75.36
2018-11-22T12:43:39.897Z,74.98
2018-11-22T12:48:43.099Z,75.49
2018-11-22T12:53:46.681Z,75.77
2018-11-22T12:58:49.926Z,75.74
2018-11-22T13:03:53.219Z,76.20
2018-11-22T13:08:56.628Z,76.62
2018-11-22T13:14:00.120Z,76.32
2018-11-22T13:19:03.423Z,77.67
2018-11-22T13:24:06.850Z,76.79
2018-11-22T13:29:10.438Z,76.59
2018-11-22T13:34:13.631Z,77.79
2018-11-22T13:39:16.934Z,77.36
2018-11-22T13:44:20.177Z,77.48
2018-11-22T13:49:23.526Z,77.50
2018-11-22T13:54:26.918Z,77.20
2018-11-22T13:59:30.594Z,77.77
2018-11-22T14:04:33.873Z,77.58
2018-11-22T14:09:37.053Z,77.04
2018-11-22T14:14:40.300Z,78.26
2018-11-22T14:19:43.505Z,77.87
2018-11-22T14:24:46.755Z,78.17
2018-11-22T14:29:50.568Z,78.88
2018-11-22T14:34:56.541Z,78.40
2018-11-22T14:39:57.235Z,77.80
2018-11-22T14:45:00.454Z,78.92
2018-11-22T14:50:08.568Z,79.55
2018-11-22T14:55:11.758Z,79.77
2018-11-22T15:00:14.970Z,79.74
2018-11-22T15:05:18.239Z,80.07
2018-11-22T15:10:21.550Z,80.74
2018-11-22T15:15:24.959Z,80.56
2018-11-22T15:20:28.267Z,81.15
2018-11-22T15:25:31.460Z,80.51
2018-11-22T15:30:34.609Z,80.81
2018-11-22T15:35:37.806Z,81.69
2018-11-22T15:40:41.024Z,81.28
2018-11-22T15:45:44.371Z,81.96
2018-11-22T15:50:47.826Z,81.86
2018-11-22T15:55:51.981Z,82.44
2018-11-22T16:00:55.235Z,82.33
2018-11-22T16:05:58.464Z,82.68
2018-11-22T16:11:01.632Z,82.64
2018-11-22T16:16:05.686Z,82.47
2018-11-22T16:21:08.978Z,82.42
2018-11-22T16:26:12.148Z,82.75
2018-11-22T16:31:15.440Z,82.75
2018-11-22T16:36:19.853Z,82.24
2018-11-22T16:41:23.587Z,82.99
2018-11-22T16:46:27.014Z,83.02
2018-11-22T16:51:30.182Z,82.72
2018-11-22T16:56:35.138Z,82.94
2018-11-22T17:01:38.392Z,83.25
2018-11-22T17:06:41.676Z,83.36
2018-11-22T17:11:44.926Z,83.48
2018-11-22T17:16:48.284Z,83.56
2018-11-22T17:21:51.816Z,84.25
2018-11-22T17:26:55.104Z,83.83
2018-11-22T17:31:58.504Z,83.98
2018-11-22T17:37:03.615Z,83.73
2018-11-22T17:42:06.831Z,83.78
2018-11-22T17:47:09.973Z,84.59
2018-11-22T17:52:13.398Z,83.63
2018-11-22T17:57:16.613Z,84.23
2018-11-22T18:02:19.729Z,84.61
2018-11-22T18:07:23.570Z,84.35
2018-11-22T18:12:26.803Z,84.11
2018-11-22T18:17:29.994Z,84.83
2018-11-22T18:22:33.292Z,84.71
2018-11-22T18:27:36.500Z,85.23
2018-11-22T18:32:39.702Z,85.60
2018-11-22T18:37:42.849Z,85.59
2018-11-22T18:42:46.170Z,85.65
2018-11-22T18:47:49.398Z,85.51
2018-11-22T18:52:52.926Z,84.89
2018-11-22T18:58:07.430Z,85.80
2018-11-22T19:03:23.080Z,85.09
2018-11-22T19:08:44.888Z,84.67
2018-11-22T19:13:53.156Z,84.91
2018-11-22T19:19:03.003Z,85.78
2018-11-22T19:24:22.242Z,85.75
2018-11-22T19:29:40.119Z,85.69
2018-11-22T19:34:47.846Z,85.47
2018-11-22T19:39:55.430Z,86.21
2018-11-22T19:45:05.271Z,85.71
2018-11-22T19:50:19.188Z,86.64
2018-11-22T19:55:39.878Z,85.67
2018-11-22T20:00:54.559Z,85.73
2018-11-22T20:06:11.781Z,86.30
2018-11-22T20:11:30.754Z,86.59
2018-11-22T20:16:41.443Z,86.83
2018-11-22T20:21:54.415Z,87.56
2018-11-22T20:27:04.778Z,87.00
2018-11-22T20:32:20.494Z,86.83
2018-11-22T20:37:28.343Z,87.16
2018-11-22T20:42:37.509Z,87.21
2018-11-22T20:47:54.705Z,86.52
2018-11-22T20:53:14.757Z,86.47
2018-11-22T20:58:21.128Z,86.14
2018-11-22T21:03:24.386Z,86.26
2018-11-22T21:08:27.531Z,86.21
2018-11-22T21:13:38.959Z,86.10
2018-11-22T21:18:42.284Z,86.46
2018-11-22T21:23:57.747Z,86.86
2018-11-22T21:29:05.128Z,86.98
2018-11-22T21:34:08.523Z,86.54
2018-11-22T21:39:11.781Z,86.44
2018-11-22T21:44:15.302Z,86.60
2018-11-22T21:49:18.557Z,85.66
2018-11-22T21:54:22.077Z,85.86
2018-11-22T21:59:25.610Z,85.91
2018-11-22T22:04:28.926Z,86.51
2018-11-22T22:09:32.258Z,86.22
2018-11-22T22:14:35.479Z,86.20
2018-11-22T22:19:38.724Z,86.43
2018-11-22T22:24:41.941Z,86.77
2018-11-22T22:29:45.225Z,87.08
2018-11-22T22:34:48.435Z,86.96
2018-11-22T22:39:51.701Z,87.27
2018-11-22T22:44:55.010Z,87.23
2018-11-22T22:49:58.175Z,87.63
2018-11-22T22:55:01.499Z,87.86
2018-11-22T23:00:09.207Z,88.07
2018-11-22T23:05:12.457Z,87.81
2018-11-22T23:10:15.549Z,87.86
2018-11-22T23:15:18.825Z,87.72
2018-11-22T23:20:21.984Z,87.96
2018-11-22T23:25:25.138Z,88.01
2018-11-22T23:30:28.386Z,88.01
2018-11-22T23:35:31.731Z,87.55
2018-11-22T23:40:35.092Z,87.91
2018-11-22T23:45:38.247Z,87.61
2018-11-22T23:50:41.451Z,87.44
2018-11-22T23:55:44.667Z,87.25
